Time;durP1;ratioP1;P1;durP2;ratioP2;P2;SDS_P1;SDS_P2;PMS_P1;PMS_P2;Temp;Humidity;BMP_temperature;BMP_pressure;BME280_temperature;BME280_humidity;BME280_pressure;Samples;Min_cycle;Max_cycle;Signal;HPM_P1;HPM_P2
2023/01/19 00:01:01;;;;;;;5.93;5.03;;;4.10;90.60;;;;;;5055799;28;20480;-67
2023/01/19 00:03:26;;;;;;;7.03;5.25;;;4.00;90.70;;;;;;5056050;28;20554;-67
2023/01/19 00:05:52;;;;;;;8.98;5.38;;;4.00;90.70;;;;;;5056295;28;20474;-67
2023/01/19 00:08:17;;;;;;;7.25;5.00;;;4.10;90.80;;;;;;5056278;28;20428;-67
2023/01/19 00:10:50;;;;;;;7.88;5.35;;;4.00;90.70;;;;;;5055758;28;20465;-67
2023/01/19 00:13:15;;;;;;;6.55;5.50;;;4.00;90.60;;;;;;5056087;28;20120;-67
2023/01/19 00:15:41;;;;;;;6.90;5.55;;;3.90;91.00;;;;;;5055792;28;20108;-67
2023/01/19 00:18:07;;;;;;;7.80;5.70;;;4.00;90.60;;;;;;5055978;28;20047;-67
2023/01/19 00:20:34;;;;;;;7.93;5.20;;;3.90;90.70;;;;;;5055295;28;20029;-67
2023/01/19 00:23:00;;;;;;;10.38;5.47;;;3.90;90.80;;;;;;5055869;28;20072;-67
2023/01/19 00:25:26;;;;;;;8.48;5.68;;;3.80;90.80;;;;;;5056682;28;20451;-67
2023/01/19 00:27:52;;;;;;;10.27;5.78;;;3.80;90.90;;;;;;5059824;28;20103;-67
2023/01/19 00:30:18;;;;;;;7.13;5.30;;;3.80;91.10;;;;;;5055776;28;20028;-67
2023/01/19 00:32:43;;;;;;;6.93;5.80;;;3.80;91.00;;;;;;5055697;28;20033;-67
2023/01/19 00:35:09;;;;;;;8.02;6.20;;;3.80;91.20;;;;;;5055772;28;20029;-67
2023/01/19 00:37:35;;;;;;;8.88;6.13;;;3.80;91.30;;;;;;5055075;28;20025;-67
2023/01/19 00:40:00;;;;;;;7.00;5.85;;;3.70;91.40;;;;;;5055377;28;20045;-67
2023/01/19 00:42:44;;;;;;;8.40;6.07;;;3.80;91.80;;;;;;5055590;28;20029;-67
2023/01/19 00:45:13;;;;;;;8.77;5.82;;;3.70;91.90;;;;;;5055433;28;20044;-67
2023/01/19 00:47:39;;;;;;;8.55;5.93;;;3.70;92.00;;;;;;5055126;28;20389;-67
2023/01/19 00:50:06;;;;;;;7.28;5.38;;;3.70;92.30;;;;;;5055391;28;20033;-67
2023/01/19 00:52:32;;;;;;;7.18;5.65;;;3.70;92.60;;;;;;5054812;28;20075;-66
2023/01/19 00:54:57;;;;;;;7.35;5.70;;;3.70;92.70;;;;;;5053818;28;20025;-67
2023/01/19 00:57:23;;;;;;;7.22;5.68;;;3.60;92.80;;;;;;5054044;28;20055;-67
2023/01/19 00:59:49;;;;;;;7.85;6.47;;;3.60;93.20;;;;;;5054785;28;20036;-67
2023/01/19 01:02:14;;;;;;;8.45;6.30;;;3.60;93.10;;;;;;5053693;28;20374;-66
2023/01/19 01:04:40;;;;;;;7.53;6.22;;;3.60;93.40;;;;;;5054656;28;20037;-67
2023/01/19 01:07:06;;;;;;;7.85;6.10;;;3.50;93.80;;;;;;5054848;28;20040;-67
2023/01/19 01:09:32;;;;;;;7.05;5.65;;;3.60;93.90;;;;;;5053171;28;20031;-67
2023/01/19 01:11:57;;;;;;;7.47;5.93;;;3.60;94.00;;;;;;5053238;28;20043;-67
2023/01/19 01:14:23;;;;;;;8.90;7.03;;;3.60;94.10;;;;;;5054598;28;20032;-67
2023/01/19 01:16:49;;;;;;;8.57;6.38;;;3.50;93.80;;;;;;5054073;28;20440;-67
2023/01/19 01:19:15;;;;;;;8.38;6.68;;;3.50;93.90;;;;;;5054881;28;20056;-67
2023/01/19 01:21:41;;;;;;;7.22;6.47;;;3.50;93.80;;;;;;5054419;28;20029;-67
2023/01/19 01:24:08;;;;;;;8.15;6.75;;;3.50;93.90;;;;;;5054814;28;20098;-67
2023/01/19 01:26:34;;;;;;;8.73;6.35;;;3.50;94.10;;;;;;5054415;28;20057;-67
2023/01/19 01:29:00;;;;;;;8.65;6.68;;;3.50;94.00;;;;;;5054307;28;20045;-67
2023/01/19 01:31:25;;;;;;;8.15;6.40;;;3.50;93.90;;;;;;5054575;28;20029;-67
2023/01/19 01:33:51;;;;;;;8.10;6.40;;;3.50;93.70;;;;;;5054271;28;20071;-67
2023/01/19 01:36:19;;;;;;;8.32;6.07;;;3.50;93.70;;;;;;5053312;28;20159;-67
2023/01/19 01:38:45;;;;;;;8.18;6.03;;;3.50;93.70;;;;;;5054343;28;20108;-67
2023/01/19 01:41:11;;;;;;;8.52;6.43;;;3.40;93.60;;;;;;5054036;28;20501;-67
2023/01/19 01:44:00;;;;;;;7.55;5.60;;;3.50;93.50;;;;;;5053643;28;20051;-67
2023/01/19 01:46:30;;;;;;;8.15;6.28;;;3.40;93.60;;;;;;5054432;28;20029;-66
2023/01/19 01:49:01;;;;;;;8.45;6.50;;;3.40;93.30;;;;;;5053845;28;20032;-67
2023/01/19 01:51:37;;;;;;;8.20;6.40;;;3.40;93.40;;;;;;5054549;28;20108;-67
2023/01/19 01:54:15;;;;;;;7.97;5.70;;;3.40;93.30;;;;;;5056565;28;20386;-67
2023/01/19 01:56:47;;;;;;;7.03;5.95;;;3.40;92.90;;;;;;5060251;28;20021;-66
2023/01/19 01:59:47;;;;;;;7.40;5.90;;;3.30;92.90;;;;;;5056092;28;20029;-66
2023/01/19 02:05:08;;;;;;;8.77;6.25;;;3.40;92.50;;;;;;5054026;28;20043;-66
2023/01/19 02:13:17;;;;;;;7.18;5.80;;;3.40;92.10;;;;;;5053945;28;20087;-66
2023/01/19 02:15:43;;;;;;;7.32;5.95;;;3.40;91.80;;;;;;5053707;28;20028;-67
2023/01/19 02:18:09;;;;;;;8.30;5.85;;;3.40;91.50;;;;;;5053746;28;20441;-67
2023/01/19 02:20:36;;;;;;;7.38;5.75;;;3.50;91.40;;;;;;5053500;28;20037;-70
2023/01/19 02:23:06;;;;;;;7.60;6.00;;;3.50;91.10;;;;;;5052666;28;20052;-66
2023/01/19 02:25:32;;;;;;;8.43;5.97;;;3.40;91.20;;;;;;5053779;28;20033;-66
2023/01/19 02:27:59;;;;;;;8.27;6.05;;;3.50;91.40;;;;;;5052924;28;20057;-65
2023/01/19 02:30:26;;;;;;;7.15;6.00;;;3.50;90.90;;;;;;5052117;28;20090;-66
2023/01/19 02:32:52;;;;;;;8.32;5.78;;;3.50;90.80;;;;;;5051712;28;20124;-66
2023/01/19 02:35:18;;;;;;;7.50;5.72;;;3.50;91.10;;;;;;5053063;28;20110;-66
2023/01/19 02:37:45;;;;;;;6.30;5.65;;;3.50;91.20;;;;;;5052761;28;20060;-66
2023/01/19 02:40:14;;;;;;;8.05;5.88;;;3.50;91.00;;;;;;5052963;28;20083;-66
2023/01/19 02:42:51;;;;;;;8.55;6.03;;;3.50;91.00;;;;;;5052775;28;20037;-66
2023/01/19 02:45:21;;;;;;;9.43;6.07;;;3.50;90.60;;;;;;5053018;28;20464;-66
2023/01/19 02:47:49;;;;;;;7.85;6.20;;;3.50;90.40;;;;;;5052550;28;20052;-66
2023/01/19 02:50:42;;;;;;;6.80;5.53;;;3.50;90.50;;;;;;5053075;28;20466;-67
2023/01/19 02:53:26;;;;;;;9.38;6.40;;;3.50;90.60;;;;;;5053372;28;20047;-67
2023/01/19 02:56:35;;;;;;;7.70;5.53;;;3.50;90.50;;;;;;5052604;28;20025;-66
2023/01/19 02:59:25;;;;;;;7.22;6.10;;;3.50;90.30;;;;;;5014589;28;20451;-66
2023/01/19 03:02:00;;;;;;;7.53;5.90;;;3.50;90.40;;;;;;5051168;28;20526;-65
2023/01/19 03:04:43;;;;;;;6.65;5.53;;;3.50;90.30;;;;;;5052846;28;20039;-66
2023/01/19 03:07:26;;;;;;;6.85;5.53;;;3.50;88.90;;;;;;5052899;28;20040;-66
2023/01/19 03:10:16;;;;;;;7.63;6.03;;;3.60;88.60;;;;;;5052257;28;20029;-67
2023/01/19 03:12:53;;;;;;;6.75;5.45;;;3.60;88.30;;;;;;5052427;28;20021;-67
2023/01/19 03:15:26;;;;;;;7.68;5.88;;;3.60;88.80;;;;;;5053023;28;20525;-67
2023/01/19 03:17:52;;;;;;;7.47;6.07;;;3.60;88.60;;;;;;5052363;28;20094;-67
2023/01/19 03:20:24;;;;;;;7.45;5.60;;;3.60;88.00;;;;;;5052663;28;20083;-66
2023/01/19 03:22:55;;;;;;;8.65;6.22;;;3.50;88.70;;;;;;5052036;28;20455;-67
2023/01/19 03:25:22;;;;;;;6.22;5.60;;;3.50;89.50;;;;;;5050990;28;20025;-67
2023/01/19 03:27:51;;;;;;;7.10;6.13;;;3.50;90.00;;;;;;5050999;28;20032;-67
2023/01/19 03:30:24;;;;;;;7.35;6.07;;;3.50;90.00;;;;;;5052993;28;20466;-67
2023/01/19 03:33:04;;;;;;;7.35;6.28;;;3.50;89.80;;;;;;5056446;28;20390;-67
2023/01/19 03:35:33;;;;;;;8.23;6.30;;;3.50;89.70;;;;;;5054072;28;20040;-67
2023/01/19 03:38:04;;;;;;;8.40;6.68;;;3.50;89.80;;;;;;5052407;28;20033;-66
2023/01/19 03:40:32;;;;;;;8.83;6.10;;;3.40;89.80;;;;;;5052833;28;20053;-67
2023/01/19 03:42:59;;;;;;;7.25;5.75;;;3.40;90.00;;;;;;5052199;28;20097;-66
2023/01/19 03:45:26;;;;;;;8.93;6.35;;;3.50;90.00;;;;;;5052837;28;20385;-67
2023/01/19 03:47:53;;;;;;;8.77;6.40;;;3.50;90.10;;;;;;5050926;28;20025;-67
2023/01/19 03:50:28;;;;;;;8.35;6.45;;;3.50;89.80;;;;;;5052577;28;20033;-67
2023/01/19 03:53:11;;;;;;;7.88;6.25;;;3.50;89.50;;;;;;5050929;28;20382;-66
2023/01/19 03:55:39;;;;;;;9.45;6.30;;;3.50;89.40;;;;;;5052425;28;20029;-67
2023/01/19 03:58:05;;;;;;;10.35;7.05;;;3.50;89.20;;;;;;5051956;28;20461;-67
2023/01/19 04:00:32;;;;;;;8.18;6.28;;;3.50;89.50;;;;;;5052124;28;20418;-67
2023/01/19 04:02:57;;;;;;;9.02;6.45;;;3.50;89.50;;;;;;5051627;28;20473;-67
2023/01/19 04:05:24;;;;;;;7.95;6.53;;;3.50;89.40;;;;;;5052434;28;20029;-67
2023/01/19 04:07:51;;;;;;;7.47;5.88;;;3.50;89.00;;;;;;5051822;28;20032;-67
2023/01/19 04:10:17;;;;;;;7.63;6.20;;;3.60;88.90;;;;;;5052369;28;20036;-68
2023/01/19 04:12:43;;;;;;;7.93;6.05;;;3.60;88.50;;;;;;5052310;28;20029;-66
2023/01/19 04:15:10;;;;;;;7.40;5.95;;;3.60;88.10;;;;;;5052156;28;20025;-65
2023/01/19 04:17:35;;;;;;;10.27;6.82;;;3.50;88.50;;;;;;5052004;28;20079;-65
2023/01/19 04:20:01;;;;;;;8.63;6.28;;;3.50;88.50;;;;;;5051542;28;20021;-65
2023/01/19 04:22:27;;;;;;;8.85;6.60;;;3.60;88.10;;;;;;5052089;28;20512;-66
2023/01/19 04:24:52;;;;;;;7.80;6.05;;;3.60;87.70;;;;;;5050458;28;20025;-66
2023/01/19 04:27:18;;;;;;;8.63;7.07;;;3.60;87.10;;;;;;5052081;28;20029;-66
2023/01/19 04:29:44;;;;;;;7.25;6.10;;;3.60;87.20;;;;;;5051926;28;20405;-66
2023/01/19 04:32:11;;;;;;;7.97;6.10;;;3.60;87.40;;;;;;5051703;28;20478;-66
2023/01/19 04:34:37;;;;;;;8.35;6.90;;;3.60;86.90;;;;;;5051949;28;20036;-66
2023/01/19 04:37:03;;;;;;;8.43;6.88;;;3.60;87.60;;;;;;5051626;28;20025;-66
2023/01/19 04:39:28;;;;;;;9.48;6.32;;;3.60;88.00;;;;;;5051485;28;20040;-66
2023/01/19 04:41:56;;;;;;;8.43;6.47;;;3.60;88.00;;;;;;5051438;28;20027;-66
2023/01/19 04:44:22;;;;;;;8.48;6.40;;;3.60;87.20;;;;;;5052139;28;20033;-66
2023/01/19 04:46:48;;;;;;;8.93;7.22;;;3.60;86.60;;;;;;5054049;28;20108;-67
2023/01/19 04:49:14;;;;;;;10.43;6.80;;;3.60;86.80;;;;;;5055898;28;20108;-66
2023/01/19 04:51:39;;;;;;;9.20;7.15;;;3.60;87.70;;;;;;5054369;28;20025;-67
2023/01/19 04:54:07;;;;;;;8.00;6.70;;;3.60;87.60;;;;;;5058912;28;20036;-67
2023/01/19 04:56:33;;;;;;;8.80;7.25;;;3.60;87.70;;;;;;5056322;28;20028;-66
2023/01/19 04:58:59;;;;;;;8.13;6.78;;;3.50;88.40;;;;;;5054141;28;20024;-66
2023/01/19 05:01:25;;;;;;;8.40;6.70;;;3.50;88.30;;;;;;5055054;28;20535;-66
2023/01/19 05:03:51;;;;;;;9.00;7.13;;;3.50;88.60;;;;;;5054471;28;20474;-66
2023/01/19 05:06:16;;;;;;;10.15;7.43;;;3.50;88.80;;;;;;5055272;28;20036;-66
2023/01/19 05:08:42;;;;;;;8.07;6.90;;;3.60;88.80;;;;;;5055170;28;20025;-66
2023/01/19 05:11:08;;;;;;;9.60;7.63;;;3.60;88.50;;;;;;5054502;28;20470;-66
2023/01/19 05:13:33;;;;;;;9.50;7.82;;;3.60;88.80;;;;;;5055059;28;20462;-66
2023/01/19 05:16:00;;;;;;;9.07;6.78;;;3.60;88.80;;;;;;5054444;28;20029;-66
2023/01/19 05:18:25;;;;;;;9.25;7.75;;;3.60;89.20;;;;;;5054839;28;20032;-66
2023/01/19 05:20:51;;;;;;;9.60;7.38;;;3.50;89.00;;;;;;5054285;28;20378;-66
2023/01/19 05:23:17;;;;;;;9.40;7.82;;;3.50;90.00;;;;;;5055167;28;20484;-66
2023/01/19 05:25:43;;;;;;;9.98;8.02;;;3.50;89.50;;;;;;5055128;28;20536;-66
2023/01/19 05:28:09;;;;;;;9.70;7.60;;;3.50;90.00;;;;;;5053770;28;20028;-66
2023/01/19 05:30:35;;;;;;;10.60;8.18;;;3.50;90.10;;;;;;5044223;28;20086;-66
2023/01/19 05:33:01;;;;;;;13.43;8.27;;;3.50;90.30;;;;;;5054555;28;20032;-65
2023/01/19 05:35:27;;;;;;;10.75;8.50;;;3.40;90.60;;;;;;5052973;28;20033;-65
2023/01/19 05:37:53;;;;;;;12.05;8.48;;;3.50;90.80;;;;;;5053925;28;20025;-66
2023/01/19 05:40:18;;;;;;;12.68;8.10;;;3.40;90.80;;;;;;5054330;28;20052;-66
2023/01/19 05:42:44;;;;;;;11.02;8.63;;;3.50;90.90;;;;;;5053235;28;20036;-65
2023/01/19 05:45:11;;;;;;;13.10;8.73;;;3.40;90.90;;;;;;5053893;28;20040;-66
2023/01/19 05:47:37;;;;;;;13.50;9.43;;;3.50;91.00;;;;;;5053943;28;20064;-66
2023/01/19 05:50:03;;;;;;;12.95;8.27;;;3.50;91.10;;;;;;5053939;28;20057;-66
2023/01/19 05:52:28;;;;;;;12.80;9.32;;;3.50;91.20;;;;;;5054347;28;20025;-66
2023/01/19 05:54:55;;;;;;;13.13;9.30;;;3.40;91.30;;;;;;5053894;28;20033;-66
2023/01/19 05:57:21;;;;;;;11.77;8.95;;;3.50;91.30;;;;;;5053029;28;20346;-66
2023/01/19 05:59:47;;;;;;;12.88;8.90;;;3.50;91.30;;;;;;5052805;28;20450;-67
2023/01/19 06:02:13;;;;;;;12.70;9.48;;;3.50;91.50;;;;;;5053654;28;20069;-67
2023/01/19 06:04:38;;;;;;;12.85;9.20;;;3.40;91.70;;;;;;5053954;28;20057;-67
2023/01/19 06:07:05;;;;;;;12.35;9.60;;;3.40;91.80;;;;;;5053526;28;20052;-66
2023/01/19 06:09:31;;;;;;;13.38;9.05;;;3.40;91.80;;;;;;5053855;28;20025;-65
2023/01/19 06:11:58;;;;;;;12.68;9.55;;;3.50;92.00;;;;;;5053461;28;20025;-66
2023/01/19 06:14:24;;;;;;;13.82;9.45;;;3.40;92.10;;;;;;5054083;28;20071;-66
2023/01/19 06:16:50;;;;;;;13.68;9.35;;;3.40;92.20;;;;;;5053744;28;20052;-66
2023/01/19 06:19:15;;;;;;;12.13;9.48;;;3.40;92.30;;;;;;5053309;28;20462;-66
2023/01/19 06:21:42;;;;;;;15.30;10.45;;;3.40;92.20;;;;;;5052339;28;20028;-67
2023/01/19 06:24:08;;;;;;;13.32;9.75;;;3.40;92.40;;;;;;5053130;28;20094;-68
2023/01/19 06:26:34;;;;;;;14.60;9.82;;;3.30;92.50;;;;;;5053545;28;20079;-67
2023/01/19 06:28:59;;;;;;;14.10;10.30;;;3.40;92.70;;;;;;5052862;28;20136;-67
2023/01/19 06:31:25;;;;;;;13.50;9.50;;;3.40;92.80;;;;;;5052267;28;20025;-66
2023/01/19 06:33:51;;;;;;;11.48;9.15;;;3.40;92.80;;;;;;5053384;28;20070;-66
2023/01/19 06:36:16;;;;;;;11.88;8.98;;;3.40;92.90;;;;;;5052755;28;20041;-67
2023/01/19 06:38:42;;;;;;;12.65;9.32;;;3.30;92.90;;;;;;5053421;28;20020;-67
2023/01/19 06:41:08;;;;;;;11.50;9.30;;;3.40;93.00;;;;;;5052347;28;20379;-67
2023/01/19 06:43:34;;;;;;;12.95;9.50;;;3.30;93.00;;;;;;5052949;28;20031;-66
2023/01/19 06:45:59;;;;;;;11.48;9.10;;;3.30;93.10;;;;;;5052848;28;20040;-68
2023/01/19 06:48:25;;;;;;;13.98;9.68;;;3.30;93.20;;;;;;5052184;28;20028;-67
2023/01/19 06:50:51;;;;;;;13.38;8.77;;;3.30;93.20;;;;;;5053187;28;20157;-67
2023/01/19 06:53:19;;;;;;;13.63;9.27;;;3.40;93.10;;;;;;5052516;28;20922;-67
2023/01/19 06:55:45;;;;;;;13.43;8.75;;;3.30;93.10;;;;;;5053124;28;20029;-67
2023/01/19 06:58:11;;;;;;;15.10;9.75;;;3.40;93.20;;;;;;5052598;28;20028;-67
2023/01/19 07:00:37;;;;;;;14.52;9.85;;;3.30;93.10;;;;;;5052873;28;20040;-67
2023/01/19 07:03:06;;;;;;;9.93;8.13;;;3.30;93.30;;;;;;5052553;28;20029;-64
2023/01/19 07:05:34;;;;;;;11.45;8.52;;;3.30;93.40;;;;;;5051277;28;20044;-66
2023/01/19 07:08:00;;;;;;;14.10;9.05;;;3.30;93.20;;;;;;5052271;28;20032;-67
2023/01/19 07:10:26;;;;;;;11.77;8.30;;;3.30;93.40;;;;;;5052471;28;20029;-66
2023/01/19 07:12:52;;;;;;;12.43;8.82;;;3.40;93.50;;;;;;5053097;28;20021;-66
2023/01/19 07:15:18;;;;;;;12.50;8.43;;;3.30;93.40;;;;;;5052508;28;20033;-66
2023/01/19 07:17:44;;;;;;;11.35;8.57;;;3.40;93.20;;;;;;5052578;28;20021;-67
2023/01/19 07:20:13;;;;;;;10.30;7.68;;;3.40;92.80;;;;;;5051154;28;20025;-66
2023/01/19 07:22:40;;;;;;;11.13;7.95;;;3.40;92.60;;;;;;5052885;28;20059;-66
2023/01/19 07:25:06;;;;;;;10.23;6.93;;;3.40;92.60;;;;;;5052213;28;20037;-66
2023/01/19 07:27:32;;;;;;;10.15;7.72;;;3.40;92.40;;;;;;5052615;28;20377;-66
2023/01/19 07:29:59;;;;;;;13.68;7.70;;;3.50;92.20;;;;;;5052213;28;20100;-67
2023/01/19 07:32:26;;;;;;;8.73;6.78;;;3.50;92.40;;;;;;5052162;28;20032;-66
2023/01/19 07:34:52;;;;;;;9.85;7.03;;;3.50;92.00;;;;;;5052106;28;20363;-66
2023/01/19 07:37:18;;;;;;;9.80;7.22;;;3.50;91.80;;;;;;5051741;28;20036;-66
2023/01/19 07:39:44;;;;;;;10.05;7.55;;;3.50;91.70;;;;;;5051999;28;20477;-67
2023/01/19 07:42:09;;;;;;;10.85;7.35;;;3.50;91.60;;;;;;5052071;28;20111;-66
2023/01/19 07:44:35;;;;;;;11.98;7.53;;;3.50;91.70;;;;;;5052063;28;20485;-67
2023/01/19 07:47:02;;;;;;;9.65;7.13;;;3.60;91.70;;;;;;5051850;28;20516;-66
2023/01/19 07:49:27;;;;;;;11.10;7.10;;;3.60;91.60;;;;;;5051066;28;20075;-66
2023/01/19 07:51:55;;;;;;;9.02;6.88;;;3.50;91.60;;;;;;5052413;28;20417;-67
2023/01/19 07:54:21;;;;;;;11.98;7.10;;;3.50;91.70;;;;;;5051939;28;20028;-66
2023/01/19 07:56:46;;;;;;;13.23;6.88;;;3.50;92.00;;;;;;5052298;28;20386;-66
2023/01/19 07:59:12;;;;;;;8.45;6.72;;;3.50;92.10;;;;;;5051904;28;20021;-66
2023/01/19 08:01:39;;;;;;;11.65;7.32;;;3.50;92.10;;;;;;5050898;28;20025;-66
2023/01/19 08:04:04;;;;;;;9.25;6.97;;;3.50;92.40;;;;;;5054645;28;20037;-66
2023/01/19 08:06:35;;;;;;;10.25;7.65;;;3.50;92.40;;;;;;5054944;28;20095;-66
2023/01/19 08:09:04;;;;;;;8.75;6.72;;;3.50;92.40;;;;;;5067991;28;20092;-66
2023/01/19 08:11:30;;;;;;;11.50;7.85;;;3.50;92.10;;;;;;5072299;28;20036;-67
2023/01/19 08:13:56;;;;;;;10.48;7.25;;;3.50;92.20;;;;;;5072315;28;20032;-66
2023/01/19 08:16:22;;;;;;;10.48;7.72;;;3.50;92.10;;;;;;5071836;28;20082;-70
2023/01/19 08:18:47;;;;;;;11.10;7.68;;;3.50;92.40;;;;;;5054631;28;20078;-67
2023/01/19 08:21:13;;;;;;;11.98;8.18;;;3.50;92.50;;;;;;5052925;28;20078;-67
2023/01/19 08:23:39;;;;;;;14.38;8.35;;;3.50;92.90;;;;;;5055304;28;20044;-67
2023/01/19 08:26:26;;;;;;;9.02;7.50;;;3.50;93.00;;;;;;5055363;28;20104;-69
2023/01/19 08:28:56;;;;;;;11.98;8.20;;;3.50;93.00;;;;;;5055756;28;20021;-68
2023/01/19 08:31:23;;;;;;;10.57;7.93;;;3.50;93.10;;;;;;5055056;28;20032;-68
2023/01/19 08:33:48;;;;;;;13.63;7.53;;;3.50;93.00;;;;;;5055585;28;20033;-68
2023/01/19 08:36:14;;;;;;;10.73;8.00;;;3.60;92.90;;;;;;5054731;28;20025;-68
2023/01/19 08:38:42;;;;;;;10.55;7.90;;;3.50;92.90;;;;;;5055530;28;20112;-68
2023/01/19 08:41:09;;;;;;;11.55;7.85;;;3.60;92.80;;;;;;5055012;28;20055;-68
2023/01/19 08:43:35;;;;;;;10.30;7.50;;;3.60;93.00;;;;;;5053610;28;20094;-68
2023/01/19 08:46:00;;;;;;;11.52;8.05;;;3.60;93.10;;;;;;5055418;28;20032;-68
2023/01/19 08:48:26;;;;;;;12.63;8.60;;;3.60;93.20;;;;;;5045023;28;20281;-69
2023/01/19 08:50:52;;;;;;;9.75;7.88;;;3.60;93.00;;;;;;5036307;28;20108;-69
2023/01/19 08:53:19;;;;;;;11.35;8.57;;;3.60;93.10;;;;;;5039048;28;20026;-68
2023/01/19 08:55:45;;;;;;;10.02;8.48;;;3.60;93.20;;;;;;5039332;28;20041;-68
2023/01/19 08:58:11;;;;;;;10.05;8.07;;;3.60;93.20;;;;;;5036342;28;20548;-68
2023/01/19 09:00:38;;;;;;;11.18;7.93;;;3.70;93.20;;;;;;5035019;28;20030;-68
2023/01/19 09:03:06;;;;;;;11.48;7.35;;;3.70;93.00;;;;;;5035921;28;20388;-67
2023/01/19 09:05:36;;;;;;;11.38;8.10;;;3.70;92.80;;;;;;5035307;28;20033;-68
2023/01/19 09:08:03;;;;;;;10.43;7.68;;;3.70;92.70;;;;;;5035157;28;20474;-67
2023/01/19 09:10:34;;;;;;;10.27;7.40;;;3.70;92.90;;;;;;5034549;28;20040;-68
2023/01/19 09:13:03;;;;;;;9.77;7.45;;;3.70;92.50;;;;;;5035238;28;20037;-68
2023/01/19 09:15:31;;;;;;;10.27;7.50;;;3.70;92.60;;;;;;5034816;28;20440;-68
2023/01/19 09:17:56;;;;;;;11.63;7.63;;;3.80;92.60;;;;;;5035449;28;20048;-68
2023/01/19 09:20:22;;;;;;;8.43;6.53;;;3.80;92.50;;;;;;5052059;28;20454;-68
2023/01/19 09:22:48;;;;;;;9.60;7.25;;;3.80;92.40;;;;;;5055793;28;20029;-67
2023/01/19 09:25:14;;;;;;;8.52;6.22;;;3.90;92.20;;;;;;5054624;28;20033;-67
2023/01/19 09:27:39;;;;;;;8.45;6.68;;;3.90;91.40;;;;;;5055043;28;20021;-68
2023/01/19 09:30:06;;;;;;;8.07;5.90;;;3.90;91.10;;;;;;5054537;28;20029;-67
2023/01/19 09:32:31;;;;;;;7.97;5.25;;;3.90;91.20;;;;;;5054126;28;20416;-68
2023/01/19 09:34:57;;;;;;;6.72;5.30;;;4.00;90.70;;;;;;5054691;28;20036;-67
2023/01/19 09:37:23;;;;;;;6.35;5.20;;;4.00;90.50;;;;;;5053758;28;20457;-68
2023/01/19 09:39:48;;;;;;;8.18;5.60;;;4.00;90.60;;;;;;5054264;28;20358;-69
2023/01/19 09:42:41;;;;;;;6.80;5.63;;;4.00;90.10;;;;;;5053921;28;20033;-69
2023/01/19 09:45:17;;;;;;;6.72;5.45;;;4.00;90.20;;;;;;5054432;28;20045;-68
2023/01/19 09:47:47;;;;;;;8.73;5.60;;;4.00;90.10;;;;;;5054448;28;20032;-67
2023/01/19 09:50:25;;;;;;;8.98;5.55;;;4.00;90.20;;;;;;5054031;28;20021;-69
2023/01/19 09:53:06;;;;;;;8.27;5.55;;;4.10;89.50;;;;;;5053974;28;20021;-69
2023/01/19 09:55:31;;;;;;;8.95;5.93;;;4.20;89.70;;;;;;5053921;28;20025;-69
2023/01/19 09:57:57;;;;;;;7.88;5.65;;;4.10;88.90;;;;;;5054262;28;20033;-68
2023/01/19 10:00:26;;;;;;;7.45;5.65;;;4.20;89.40;;;;;;5053833;28;20029;-69
2023/01/19 10:02:57;;;;;;;9.70;6.10;;;4.10;89.20;;;;;;5054100;28;20036;-68
2023/01/19 10:05:36;;;;;;;6.70;5.85;;;4.20;89.10;;;;;;5053516;28;20029;-69
2023/01/19 10:08:19;;;;;;;8.00;5.72;;;4.20;89.20;;;;;;5054384;28;20033;-68
2023/01/19 10:10:53;;;;;;;9.00;5.93;;;4.20;89.60;;;;;;5054304;28;20029;-67
2023/01/19 10:13:37;;;;;;;6.45;5.05;;;4.20;89.50;;;;;;5053693;28;20377;-69
2023/01/19 10:16:40;;;;;;;7.60;4.93;;;4.20;88.90;;;;;;5053870;28;20485;-68
2023/01/19 10:19:40;;;;;;;6.78;5.05;;;4.20;87.50;;;;;;5053472;28;20028;-68
2023/01/19 10:22:22;;;;;;;5.25;4.28;;;4.20;87.00;;;;;;5052725;28;20040;-68
2023/01/19 10:24:53;;;;;;;7.95;5.25;;;4.10;87.00;;;;;;5053679;28;20029;-68
2023/01/19 10:27:25;;;;;;;6.68;5.15;;;4.20;87.70;;;;;;5053088;28;20393;-68
2023/01/19 10:29:51;;;;;;;6.57;5.50;;;4.20;88.30;;;;;;5053354;28;20496;-69
2023/01/19 10:32:21;;;;;;;7.70;5.95;;;4.20;88.20;;;;;;5052828;28;20024;-69
2023/01/19 10:34:48;;;;;;;8.20;6.57;;;4.20;88.70;;;;;;5053572;28;20473;-67
2023/01/19 10:37:17;;;;;;;9.02;6.75;;;4.20;88.20;;;;;;5053152;28;20021;-72
2023/01/19 10:39:52;;;;;;;7.70;6.72;;;4.20;88.10;;;;;;5053321;28;20053;-69
2023/01/19 10:42:19;;;;;;;10.85;6.32;;;4.10;89.10;;;;;;5052984;28;20369;-68
2023/01/19 10:44:45;;;;;;;8.32;5.88;;;4.10;88.30;;;;;;5052602;28;20029;-68
2023/01/19 10:47:19;;;;;;;7.82;6.45;;;4.00;87.70;;;;;;5053581;28;20033;-68
2023/01/19 10:49:46;;;;;;;8.73;6.85;;;4.00;88.30;;;;;;5053214;28;20029;-68
2023/01/19 10:52:30;;;;;;;8.70;6.57;;;4.00;87.70;;;;;;5053237;28;20167;-68
2023/01/19 10:54:58;;;;;;;8.20;6.07;;;4.00;87.20;;;;;;5053252;28;20374;-68
2023/01/19 10:57:29;;;;;;;9.65;6.28;;;4.10;87.30;;;;;;5051106;28;20120;-68
2023/01/19 10:59:55;;;;;;;12.10;6.70;;;4.10;86.90;;;;;;5053052;28;20021;-68
2023/01/19 11:02:25;;;;;;;11.68;6.60;;;4.10;87.00;;;;;;5052265;28;20033;-68
2023/01/19 11:04:56;;;;;;;9.75;6.75;;;4.20;86.60;;;;;;5053045;28;20029;-67
2023/01/19 11:07:24;;;;;;;8.20;5.95;;;4.20;84.50;;;;;;5052582;28;20033;-68
2023/01/19 11:10:16;;;;;;;10.70;6.05;;;4.10;84.40;;;;;;5053845;28;20111;-69
2023/01/19 11:13:00;;;;;;;7.30;4.95;;;4.10;82.70;;;;;;5055822;28;20039;-68
2023/01/19 11:15:41;;;;;;;7.60;5.43;;;4.10;82.10;;;;;;5053307;28;20466;-68
2023/01/19 11:18:07;;;;;;;6.88;5.15;;;4.10;82.10;;;;;;5052206;28;20612;-68
2023/01/19 11:20:52;;;;;;;7.25;4.78;;;4.10;81.90;;;;;;5052092;28;20028;-67
2023/01/19 11:23:27;;;;;;;6.93;4.50;;;4.10;81.30;;;;;;5051032;28;20040;-68
2023/01/19 11:25:57;;;;;;;6.45;4.50;;;4.00;80.80;;;;;;5052653;28;20036;-67
2023/01/19 11:28:36;;;;;;;6.85;4.90;;;4.00;79.90;;;;;;5052243;28;20025;-67
2023/01/19 11:31:16;;;;;;;7.82;5.07;;;4.00;79.60;;;;;;5052791;28;20167;-68
2023/01/19 11:33:50;;;;;;;4.63;3.73;;;4.00;79.40;;;;;;5052040;28;20061;-68
2023/01/19 11:36:20;;;;;;;5.63;4.20;;;4.00;77.00;;;;;;5051904;28;20028;-68
2023/01/19 11:38:49;;;;;;;3.88;3.30;;;4.00;75.80;;;;;;5051545;28;20025;-68
2023/01/19 11:41:25;;;;;;;4.85;3.90;;;4.00;74.50;;;;;;5052411;28;20064;-68
2023/01/19 11:43:57;;;;;;;5.25;3.38;;;3.90;71.80;;;;;;5052250;28;20061;-67
2023/01/19 11:46:25;;;;;;;;;;;3.90;70.20;;;;;;5052225;28;20037;-67
2023/01/19 11:49:00;;;;;;;5.40;3.03;;;3.90;64.20;;;;;;5052837;28;19909;-67
2023/01/19 11:51:55;;;;;;;5.53;3.20;;;3.90;61.30;;;;;;5052087;28;20055;-68
2023/01/19 11:54:40;;;;;;;4.32;2.97;;;3.90;61.30;;;;;;5046962;28;20489;-67
2023/01/19 11:57:13;;;;;;;5.40;3.33;;;3.90;62.00;;;;;;5056555;28;20025;-67
2023/01/19 11:59:39;;;;;;;6.53;3.33;;;3.90;62.90;;;;;;5056204;28;20036;-68
2023/01/19 12:02:16;;;;;;;4.57;3.50;;;3.90;64.10;;;;;;5055124;28;20029;-67
2023/01/19 12:04:43;;;;;;;5.95;3.20;;;3.90;66.00;;;;;;5055868;28;20029;-68
2023/01/19 12:07:12;;;;;;;6.30;3.75;;;3.90;66.50;;;;;;5056260;28;20033;-69
2023/01/19 12:09:45;;;;;;;6.32;4.03;;;4.00;67.60;;;;;;5055536;28;20393;-67
2023/01/19 12:12:32;;;;;;;5.57;4.07;;;4.00;68.30;;;;;;5056087;28;20028;-67
2023/01/19 12:15:06;;;;;;;6.40;3.53;;;4.00;69.30;;;;;;5056167;28;20037;-67
2023/01/19 12:17:36;;;;;;;4.93;3.55;;;4.00;68.10;;;;;;5055847;28;20029;-67
2023/01/19 12:20:21;;;;;;;5.05;3.25;;;4.10;67.10;;;;;;5056477;28;20029;-68
2023/01/19 12:22:58;;;;;;;7.30;3.15;;;4.00;65.60;;;;;;5057287;28;20048;-69
2023/01/19 12:26:05;;;;;;;6.03;3.55;;;4.00;65.60;;;;;;5057676;28;20043;-69
2023/01/19 12:28:36;;;;;;;8.60;3.05;;;4.00;65.50;;;;;;5033721;28;20087;-67
2023/01/19 12:31:03;;;;;;;6.90;3.55;;;4.00;66.40;;;;;;5033732;28;20029;-67
2023/01/19 12:33:34;;;;;;;4.68;3.25;;;4.00;66.90;;;;;;5044263;28;20075;-67
2023/01/19 12:36:23;;;;;;;6.68;3.80;;;4.00;67.90;;;;;;5055609;28;20039;-67
2023/01/19 12:38:54;;;;;;;6.80;3.65;;;3.90;69.30;;;;;;5051372;28;20033;-67
2023/01/19 12:41:24;;;;;;;4.43;3.35;;;3.90;70.20;;;;;;5055675;28;20049;-68
2023/01/19 12:44:09;;;;;;;6.82;3.97;;;3.90;70.70;;;;;;5055593;28;20079;-68
2023/01/19 12:46:48;;;;;;;6.50;4.20;;;3.90;71.00;;;;;;5055108;28;20029;-67
2023/01/19 12:49:22;;;;;;;6.85;3.80;;;3.80;70.80;;;;;;5055252;28;20068;-67
2023/01/19 12:51:50;;;;;;;5.05;3.75;;;3.80;71.20;;;;;;5054903;28;20025;-67
2023/01/19 12:54:30;;;;;;;5.60;3.97;;;3.80;71.70;;;;;;5055434;28;20079;-67
2023/01/19 12:57:07;;;;;;;6.68;4.13;;;3.90;72.30;;;;;;5054076;28;20028;-67
2023/01/19 12:59:36;;;;;;;4.35;3.90;;;3.80;72.70;;;;;;5054721;28;20390;-68
2023/01/19 13:02:19;;;;;;;6.75;4.55;;;3.90;72.70;;;;;;5055198;28;20348;-66
2023/01/19 13:05:10;;;;;;;6.60;4.47;;;3.80;73.00;;;;;;5054608;28;20036;-68
2023/01/19 13:08:00;;;;;;;6.53;4.30;;;3.80;72.80;;;;;;5052748;28;20037;-67
2023/01/19 13:11:09;;;;;;;6.57;4.07;;;3.90;71.90;;;;;;5054715;28;20108;-69
2023/01/19 13:13:47;;;;;;;6.65;4.70;;;3.90;73.30;;;;;;5054833;28;20059;-69
2023/01/19 13:16:19;;;;;;;7.97;5.18;;;3.90;75.50;;;;;;5055064;28;20108;-67
2023/01/19 13:19:05;;;;;;;6.70;5.43;;;3.80;76.80;;;;;;5054479;28;20091;-67